Time;durP1;ratioP1;P1;durP2;ratioP2;P2;SDS_P1;SDS_P2;PMS_P1;PMS_P2;Temp;Humidity;BMP_temperature;BMP_pressure;BME280_temperature;BME280_humidity;BME280_pressure;Samples;Min_cycle;Max_cycle;Signal;HPM_P1;HPM_P2
2022/03/17 00:03:47;;;;;;;59.47;30.40;;;;;;;5.40;76.19;102264.75;10255566;28;20224;-71
2022/03/17 00:08:52;;;;;;;60.50;30.37;;;;;;;5.34;76.78;102261.91;10262120;28;20226;-72
2022/03/17 00:13:55;;;;;;;52.60;28.20;;;;;;;5.27;76.34;102254.75;10262008;28;20676;-72
2022/03/17 00:18:59;;;;;;;58.53;29.37;;;;;;;5.30;76.22;102267.72;10261394;28;20550;-72
2022/03/17 00:24:06;;;;;;;56.80;29.63;;;;;;;5.23;76.69;102266.59;10262548;28;20238;-73
2022/03/17 00:29:11;;;;;;;58.20;30.23;;;;;;;5.20;77.64;102278.47;10261593;28;20278;-75
2022/03/17 00:34:15;;;;;;;58.47;29.77;;;;;;;5.11;76.72;102280.69;10261281;28;20542;-74
2022/03/17 00:39:21;;;;;;;56.53;29.93;;;;;;;5.06;77.19;102279.56;10260926;28;20223;-72
2022/03/17 00:44:24;;;;;;;56.80;28.93;;;;;;;5.00;77.24;102277.63;10260727;28;20232;-72
2022/03/17 00:49:27;;;;;;;56.40;27.37;;;;;;;4.84;78.36;102282.03;10260575;28;20216;-73
2022/03/17 00:54:32;;;;;;;59.40;28.87;;;;;;;4.84;79.40;102276.88;10260575;28;20257;-71
2022/03/17 00:59:36;;;;;;;63.10;29.60;;;;;;;4.78;80.09;102281.78;10261678;28;20215;-73
2022/03/17 01:04:40;;;;;;;59.10;29.10;;;;;;;4.61;80.62;102283.59;10257392;28;20290;-74
2022/03/17 01:09:45;;;;;;;54.47;28.03;;;;;;;4.57;81.48;102287.72;10256829;28;20270;-74
2022/03/17 01:14:48;;;;;;;56.50;29.40;;;;;;;4.50;80.58;102293.38;10256346;28;20599;-75
2022/03/17 01:19:52;;;;;;;54.70;26.73;;;;;;;4.38;81.15;102287.69;9913864;28;9999994;-76
2022/03/17 01:24:57;;;;;;;51.93;27.10;;;;;;;4.30;82.00;102281.34;10256078;28;20236;-74
2022/03/17 01:30:02;;;;;;;51.17;28.03;;;;;;;4.38;81.39;102292.84;10256018;28;20224;-75
2022/03/17 01:35:07;;;;;;;52.43;27.70;;;;;;;4.29;81.17;102305.28;10259862;28;20307;-69
2022/03/17 01:40:12;;;;;;;52.37;28.07;;;;;;;4.22;82.40;102310.94;10258925;28;20671;-68
2022/03/17 01:45:16;;;;;;;60.87;29.60;;;;;;;4.15;83.23;102308.91;10258471;28;20239;-69
2022/03/17 01:50:20;;;;;;;52.43;27.53;;;;;;;4.03;83.77;102308.31;10258332;28;20535;-71
2022/03/17 01:55:25;;;;;;;56.20;27.03;;;;;;;3.96;84.88;102308.84;10258562;28;20242;-72
2022/03/17 02:00:28;;;;;;;55.17;27.80;;;;;;;3.96;84.72;102306.28;10257719;28;20224;-70
2022/03/17 02:05:32;;;;;;;53.77;28.20;;;;;;;3.90;83.99;102313.66;10257749;28;20672;-72
2022/03/17 02:15:57;;;;;;;42.67;23.43;;;;;;;3.88;84.38;102317.88;10257371;28;20236;-71
2022/03/17 02:21:00;;;;;;;46.47;24.23;;;;;;;3.84;84.84;102320.22;10257183;28;20319;-68
2022/03/17 02:26:06;;;;;;;53.60;24.63;;;;;;;3.82;84.82;102322.69;10257138;28;20362;-69
2022/03/17 02:31:11;;;;;;;44.17;23.57;;;;;;;3.78;85.29;102327.63;10257141;28;20727;-68
2022/03/17 02:36:15;;;;;;;46.47;22.87;;;;;;;3.74;85.66;102321.47;10256719;28;20286;-70
2022/03/17 02:41:23;;;;;;;44.00;23.87;;;;;;;3.66;86.39;102327.88;10257098;28;20216;-70
2022/03/17 02:46:28;;;;;;;43.43;22.30;;;;;;;3.61;87.27;102343.91;10258116;28;20577;-70
2022/03/17 02:51:32;;;;;;;43.23;23.77;;;;;;;3.44;88.00;102348.16;10256381;28;20262;-71
2022/03/17 02:56:36;;;;;;;47.10;23.33;;;;;;;3.43;87.83;102349.00;10256252;28;20579;-69
2022/03/17 03:01:40;;;;;;;40.80;22.57;;;;;;;3.35;87.47;102347.69;10256281;28;20598;-70
2022/03/17 03:06:46;;;;;;;41.23;23.97;;;;;;;3.28;88.86;102356.78;10256014;28;20284;-71
2022/03/17 03:11:50;;;;;;;47.47;24.50;;;;;;;3.30;88.16;102356.84;10255878;28;20240;-70
2022/03/17 03:16:54;;;;;;;47.40;22.57;;;;;;;3.17;88.17;102364.75;10255814;28;20675;-70
2022/03/17 03:21:57;;;;;;;46.30;23.27;;;;;;;3.09;88.56;102371.16;10258697;28;20676;-72
2022/03/17 03:27:02;;;;;;;43.33;22.83;;;;;;;2.96;89.91;102373.88;10256059;28;20367;-71
2022/03/17 03:32:06;;;;;;;44.90;22.70;;;;;;;2.97;89.98;102385.91;10255699;28;20235;-71
2022/03/17 03:37:25;;;;;;;39.87;21.97;;;;;;;2.89;90.67;102384.59;10255369;28;20562;-72
2022/03/17 03:42:30;;;;;;;45.13;22.57;;;;;;;2.77;90.58;102389.97;10262079;28;20223;-71
2022/03/17 03:47:34;;;;;;;49.03;21.10;;;;;;;2.79;91.11;102401.19;10263187;28;20246;-71
2022/03/17 03:52:37;;;;;;;46.53;21.27;;;;;;;2.72;91.02;102409.34;10262842;28;20232;-72
2022/03/17 03:57:42;;;;;;;38.77;21.00;;;;;;;2.77;91.68;102407.03;10264498;28;20647;-71
2022/03/17 04:02:45;;;;;;;44.80;22.27;;;;;;;2.73;91.23;102415.34;10262387;28;20216;-73
2022/03/17 04:07:49;;;;;;;40.13;20.73;;;;;;;2.58;92.41;102417.06;10262303;28;20224;-72
2022/03/17 04:12:58;;;;;;;48.67;24.20;;;;;;;2.53;93.81;102424.53;10262611;28;20663;-70
2022/03/17 04:18:01;;;;;;;41.67;21.43;;;;;;;2.40;93.84;102428.88;10261820;28;20549;-72
2022/03/17 04:23:05;;;;;;;45.90;23.83;;;;;;;2.36;94.65;102438.94;10261669;29;20575;-71
2022/03/17 04:28:09;;;;;;;38.67;21.70;;;;;;;2.28;94.79;102442.75;10261465;28;20667;-71
2022/03/17 04:33:13;;;;;;;41.03;21.67;;;;;;;2.28;94.57;102441.88;10263381;28;20232;-71
2022/03/17 04:38:16;;;;;;;34.07;19.70;;;;;;;2.29;95.24;102447.09;10261586;28;20232;-71
2022/03/17 04:43:21;;;;;;;46.20;21.47;;;;;;;2.22;96.20;102445.00;10260906;28;20530;-72
2022/03/17 04:48:25;;;;;;;42.07;21.37;;;;;;;2.17;95.73;102455.78;10260592;28;20228;-70
2022/03/17 04:53:29;;;;;;;45.90;22.20;;;;;;;2.21;96.84;102462.81;10259628;28;20262;-69
2022/03/17 04:58:35;;;;;;;49.33;22.47;;;;;;;2.15;97.08;102475.28;10260568;28;20249;-69
2022/03/17 05:03:39;;;;;;;48.50;22.63;;;;;;;2.03;97.25;102490.84;10260339;28;20247;-63
2022/03/17 05:08:43;;;;;;;42.50;22.97;;;;;;;2.05;98.22;102494.34;10261855;28;20224;-71
2022/03/17 05:13:50;;;;;;;47.97;23.90;;;;;;;1.98;98.69;102493.91;10259483;28;20557;-70
2022/03/17 05:18:54;;;;;;;41.00;22.20;;;;;;;1.94;99.69;102497.06;10259757;28;20556;-69
2022/03/17 05:23:57;;;;;;;41.37;22.30;;;;;;;1.99;100.00;102499.13;10259057;28;20215;-66
2022/03/17 05:29:02;;;;;;;46.53;24.57;;;;;;;2.08;100.00;102506.44;10257602;28;20232;-69
2022/03/17 05:34:05;;;;;;;42.27;21.63;;;;;;;1.99;100.00;102504.25;10255963;28;20216;-71
2022/03/17 05:39:08;;;;;;;42.87;22.57;;;;;;;1.98;99.28;102512.72;10255706;28;20219;-71
2022/03/17 05:44:13;;;;;;;39.87;21.17;;;;;;;2.06;99.73;102513.16;10255760;28;20570;-71
2022/03/17 05:49:16;;;;;;;45.00;24.67;;;;;;;2.05;98.22;102519.09;10256348;28;20427;-70
2022/03/17 05:54:19;;;;;;;51.00;24.03;;;;;;;1.89;99.59;102524.97;10255571;28;20235;-72
2022/03/17 05:59:24;;;;;;;47.10;23.47;;;;;;;1.97;99.26;102536.53;10253035;28;20216;-72
2022/03/17 06:04:27;;;;;;;44.07;23.60;;;;;;;2.24;98.14;102539.84;10254306;28;20216;-72
2022/03/17 06:09:31;;;;;;;44.27;21.97;;;;;;;2.32;97.72;102539.50;10258407;28;20235;-72
2022/03/17 06:14:36;;;;;;;40.27;22.23;;;;;;;2.37;97.21;102537.19;10289243;28;20234;-72
2022/03/17 06:19:40;;;;;;;45.57;22.80;;;;;;;2.36;97.20;102541.41;10293418;28;20326;-71
2022/03/17 06:24:43;;;;;;;41.63;21.57;;;;;;;2.49;98.62;102534.44;10268586;28;20302;-72
2022/03/17 06:29:48;;;;;;;45.43;23.50;;;;;;;2.53;97.45;102534.72;10237602;28;20219;-70
2022/03/17 06:34:51;;;;;;;47.27;23.53;;;;;;;2.54;98.39;102543.28;10232643;29;20231;-71
2022/03/17 06:39:54;;;;;;;39.97;21.63;;;;;;;2.57;97.25;102546.03;9893427;28;10000095;-72
2022/03/17 06:44:59;;;;;;;43.17;22.03;;;;;;;2.77;97.42;102560.84;10253063;28;20287;-72
2022/03/17 06:50:07;;;;;;;54.73;23.07;;;;;;;2.83;96.56;102561.19;10257324;28;20738;-70
2022/03/17 06:55:11;;;;;;;46.97;22.83;;;;;;;2.84;96.39;102561.28;10293081;28;20226;-69
2022/03/17 07:00:19;;;;;;;40.93;22.77;;;;;;;3.17;96.21;102555.47;10295455;28;20659;-72
2022/03/17 07:05:24;;;;;;;43.63;22.60;;;;;;;3.19;94.49;102558.09;10292612;28;20222;-72
2022/03/17 07:10:28;;;;;;;43.23;22.57;;;;;;;3.37;94.51;102569.34;10292473;28;20234;-73
2022/03/17 07:15:35;;;;;;;42.57;21.73;;;;;;;3.60;93.64;102574.03;10296473;28;20370;-74
2022/03/17 07:20:40;;;;;;;43.03;22.27;;;;;;;3.87;91.95;102574.59;10280614;28;20278;-71
2022/03/17 07:25:44;;;;;;;46.97;24.23;;;;;;;4.00;91.22;102575.34;10260706;28;20585;-63
2022/03/17 07:30:48;;;;;;;46.03;22.83;;;;;;;4.17;90.60;102565.91;10259946;28;20197;-65
2022/03/17 07:35:52;;;;;;;42.20;22.90;;;;;;;4.39;88.98;102573.91;10260155;28;20214;-64
2022/03/17 07:40:55;;;;;;;42.80;22.20;;;;;;;4.57;87.42;102575.69;10259712;28;20196;-70
2022/03/17 07:46:00;;;;;;;37.27;20.97;;;;;;;4.81;86.06;102593.13;10258674;29;20841;-70
2022/03/17 07:51:03;;;;;;;44.67;21.57;;;;;;;5.04;85.17;102587.44;10259587;28;20196;-70
2022/03/17 07:56:09;;;;;;;39.73;21.17;;;;;;;5.14;83.90;102581.91;10259370;28;20225;-70
2022/03/17 08:01:14;;;;;;;41.60;22.43;;;;;;;5.25;82.29;102591.88;10259875;28;20212;-71
2022/03/17 08:06:18;;;;;;;42.00;22.20;;;;;;;5.19;79.32;102601.00;10261335;28;20745;-70
2022/03/17 08:11:23;;;;;;;37.70;21.60;;;;;;;5.26;79.73;102600.50;10264360;28;20275;-71
2022/03/17 08:16:28;;;;;;;41.00;20.97;;;;;;;5.55;79.57;102602.72;10261873;28;20210;-71
2022/03/17 08:21:31;;;;;;;42.70;24.00;;;;;;;5.63;77.74;102614.25;10261686;28;20227;-71
2022/03/17 08:26:37;;;;;;;40.33;21.83;;;;;;;5.75;77.29;102604.50;10261097;28;20546;-71
2022/03/17 08:31:44;;;;;;;42.57;21.93;;;;;;;5.96;76.49;102602.94;10261462;28;20196;-72
2022/03/17 08:36:49;;;;;;;39.17;21.53;;;;;;;6.13;75.45;102613.97;10261294;28;20601;-71
2022/03/17 08:41:53;;;;;;;41.03;20.67;;;;;;;6.32;75.25;102613.97;10261442;28;20203;-70
2022/03/17 08:52:19;;;;;;;50.73;21.10;;;;;;;6.67;72.17;102596.59;10260279;28;20216;-67
2022/03/17 08:57:24;;;;;;;36.60;20.07;;;;;;;7.01;71.17;102596.25;10260307;28;20185;-68
2022/03/17 09:02:28;;;;;;;33.43;17.77;;;;;;;7.41;70.46;102591.84;10260221;28;20305;-68
2022/03/17 09:07:32;;;;;;;34.17;18.63;;;;;;;7.50;67.62;102594.78;10260044;28;20687;-69
2022/03/17 09:12:35;;;;;;;32.03;18.60;;;;;;;7.73;67.26;102598.22;10259729;28;20223;-70
2022/03/17 09:17:42;;;;;;;37.67;18.30;;;;;;;8.11;67.46;102595.34;10261231;28;20223;-69
2022/03/17 09:22:48;;;;;;;36.27;19.43;;;;;;;8.39;64.47;102603.25;9932445;28;10000079;-69
2022/03/17 09:27:53;;;;;;;31.20;17.80;;;;;;;8.81;63.33;102588.28;10255767;28;20234;-70
2022/03/17 09:32:59;;;;;;;35.30;18.33;;;;;;;9.13;61.23;102595.38;10255955;28;20727;-69
2022/03/17 09:38:03;;;;;;;33.17;18.07;;;;;;;9.56;61.79;102597.59;10254781;28;20282;-72
2022/03/17 09:43:28;;;;;;;38.47;18.00;;;;;;;9.99;59.45;102595.41;10255146;28;20236;-71
2022/03/17 09:48:33;;;;;;;35.83;18.00;;;;;;;10.71;58.33;102589.59;10255341;28;20289;-71
2022/03/17 09:53:36;;;;;;;30.00;18.07;;;;;;;11.24;54.69;102590.84;10257519;28;20220;-73
2022/03/17 09:58:40;;;;;;;34.57;18.57;;;;;;;11.26;53.78;102595.25;10255106;28;20320;-72
2022/03/17 10:03:45;;;;;;;30.50;16.80;;;;;;;11.93;54.85;102584.59;10254696;28;20220;-71
2022/03/17 10:08:49;;;;;;;33.20;19.37;;;;;;;12.33;51.29;102578.44;10254360;28;20267;-68
2022/03/17 10:13:54;;;;;;;24.50;14.27;;;;;;;12.92;50.70;102576.84;10280124;28;20544;-69
2022/03/17 10:19:00;;;;;;;26.40;14.93;;;;;;;13.46;50.38;102567.28;10294691;28;20363;-71
2022/03/17 10:24:04;;;;;;;27.23;15.33;;;;;;;13.83;48.88;102565.16;10296594;28;20222;-70
2022/03/17 10:29:14;;;;;;;26.83;15.27;;;;;;;13.67;45.81;102578.84;10298225;28;20543;-71
2022/03/17 10:34:20;;;;;;;24.97;14.53;;;;;;;13.62;45.95;102580.53;10286369;28;20295;-70
2022/03/17 10:39:23;;;;;;;24.30;14.57;;;;;;;14.14;47.49;102568.09;10256670;28;20255;-69
2022/03/17 10:44:27;;;;;;;23.20;13.67;;;;;;;14.73;44.60;102560.00;10256597;28;20231;-70
2022/03/17 10:49:31;;;;;;;25.17;15.33;;;;;;;14.99;43.83;102553.25;10255702;28;20266;-70
2022/03/17 10:54:35;;;;;;;25.63;14.47;;;;;;;14.79;44.40;102546.06;9921988;28;9999959;-69
2022/03/17 10:59:39;;;;;;;23.10;14.10;;;;;;;13.43;46.76;102557.66;10294032;28;20701;-70
2022/03/17 11:04:46;;;;;;;23.27;13.40;;;;;;;13.35;48.10;102558.41;10292267;28;20221;-70
2022/03/17 11:09:49;;;;;;;24.97;12.73;;;;;;;14.33;46.03;102551.78;10292298;28;20224;-72
2022/03/17 11:14:53;;;;;;;18.33;11.17;;;;;;;14.05;44.73;102541.91;10292178;28;20309;-70
2022/03/17 11:20:06;;;;;;;18.90;11.17;;;;;;;12.84;46.52;102555.00;10292113;28;20579;-72
2022/03/17 11:25:18;;;;;;;18.00;11.50;;;;;;;13.82;45.01;102539.88;10291922;28;20219;-71
2022/03/17 11:30:22;;;;;;;19.23;11.87;;;;;;;14.06;44.67;102541.03;10293118;28;20231;-70
2022/03/17 11:35:29;;;;;;;32.87;13.33;;;;;;;13.14;46.59;102545.94;10294837;28;20275;-68
2022/03/17 11:40:32;;;;;;;24.00;13.03;;;;;;;13.98;46.13;102548.75;10292031;28;20231;-67
2022/03/17 11:45:37;;;;;;;21.77;12.10;;;;;;;13.55;46.36;102552.59;10291655;28;20697;-69
2022/03/17 11:50:45;;;;;;;23.30;12.87;;;;;;;15.12;43.88;102538.47;10291992;28;20223;-69
2022/03/17 11:55:52;;;;;;;20.10;11.83;;;;;;;16.38;39.92;102534.59;10271102;28;20304;-69
2022/03/17 12:01:04;;;;;;;17.90;11.73;;;;;;;16.55;38.37;102536.38;10254459;28;20227;-71
2022/03/17 12:06:15;;;;;;;18.37;11.47;;;;;;;17.39;38.33;102524.91;10259989;28;20307;-70
2022/03/17 12:11:21;;;;;;;19.03;10.97;;;;;;;17.32;38.28;102529.28;10259166;28;20558;-69
2022/03/17 12:16:38;;;;;;;16.40;11.47;;;;;;;16.89;38.76;102529.41;10258841;28;20672;-67
2022/03/17 12:22:13;;;;;;;18.57;10.67;;;;;;;16.63;39.75;102531.16;10258382;28;20239;-68
2022/03/17 12:27:23;;;;;;;21.43;9.87;;;;;;;18.01;37.87;102509.75;10260401;28;20311;-63
2022/03/17 12:32:28;;;;;;;18.43;11.00;;;;;;;19.05;36.39;102514.16;10261159;28;20690;-64
2022/03/17 12:37:34;;;;;;;19.17;9.77;;;;;;;19.50;33.67;102516.28;10261427;28;20323;-64
2022/03/17 12:42:39;;;;;;;15.90;10.07;;;;;;;17.33;37.39;102530.16;10260708;28;20239;-68
2022/03/17 12:47:43;;;;;;;;;;;;;;;18.38;36.09;102519.13;10261043;28;20122;-68
2022/03/17 12:52:48;;;;;;;;;;;;;;;18.22;35.64;102522.72;10245734;28;19933;-65
2022/03/17 12:57:51;;;;;;;;;;;;;;;18.05;34.91;102521.97;10244734;28;19930;-70
2022/03/17 13:02:56;;;;;;;;;;;;;;;17.64;34.86;102525.69;10239106;29;19922;-69
2022/03/17 13:08:02;;;;;;;;;;;;;;;15.40;38.13;102532.56;10240770;28;19922;-70
2022/03/17 13:18:39;;;;;;;;;;;;;;;15.48;38.19;102543.94;10259844;28;19930;-70
2022/03/17 13:23:47;;;;;;;20.97;9.50;;;;;;;14.08;39.88;102547.16;10259290;28;20680;-69
2022/03/17 13:29:01;;;;;;;13.63;8.77;;;;;;;13.47;41.57;102551.63;10254682;28;20228;-69
2022/03/17 13:34:06;;;;;;;18.10;9.50;;;;;;;13.59;41.08;102549.19;10258844;28;20289;-71
2022/03/17 13:39:14;;;;;;;15.17;9.13;;;;;;;12.84;42.54;102552.41;10258878;28;20620;-70
2022/03/17 13:44:17;;;;;;;12.73;7.97;;;;;;;12.74;43.24;102549.66;10258386;29;20232;-70
2022/03/17 13:49:27;;;;;;;18.77;9.47;;;;;;;12.24;43.20;102552.22;10257782;28;20227;-68
2022/03/17 13:54:39;;;;;;;16.60;8.00;;;;;;;13.17;42.94;102543.38;10257833;28;20303;-68
2022/03/17 13:59:42;;;;;;;13.83;8.73;;;;;;;13.83;42.07;102546.88;10250297;28;20224;-69
2022/03/17 14:05:03;;;;;;;13.23;8.30;;;;;;;13.98;41.97;102538.31;10220527;29;20216;-69
2022/03/17 14:10:09;;;;;;;14.17;7.67;;;;;;;14.22;40.00;102532.50;10250180;28;20314;-69
2022/03/17 14:15:12;;;;;;;15.30;8.47;;;;;;;14.31;40.25;102535.22;10278288;28;20216;-70
2022/03/17 14:20:15;;;;;;;14.53;8.27;;;;;;;13.79;40.33;102550.28;10237564;28;20579;-69
2022/03/17 14:25:20;;;;;;;14.80;7.80;;;;;;;13.48;41.22;102544.66;10235922;28;20216;-70
2022/03/17 14:30:24;;;;;;;19.80;11.07;;;;;;;13.25;40.83;102549.59;10238222;28;20295;-69
2022/03/17 14:35:27;;;;;;;12.80;7.03;;;;;;;12.67;40.89;102554.72;10236672;28;20231;-69
2022/03/17 14:40:32;;;;;;;11.23;6.53;;;;;;;12.47;41.26;102557.00;10235959;28;20302;-69
2022/03/17 14:45:35;;;;;;;10.67;6.53;;;;;;;12.19;40.81;102553.88;10235308;29;20227;-71
2022/03/17 14:50:38;;;;;;;13.90;6.67;;;;;;;12.04;41.10;102549.28;10244229;28;20224;-72
2022/03/17 14:55:43;;;;;;;12.70;5.87;;;;;;;11.72;40.99;102554.69;10234965;28;20212;-70
2022/03/17 15:00:47;;;;;;;11.17;6.07;;;;;;;11.48;41.63;102555.88;10243587;28;20215;-72
2022/03/17 15:05:50;;;;;;;10.80;5.77;;;;;;;11.48;42.18;102555.88;10234346;29;20275;-73
2022/03/17 15:10:55;;;;;;;13.13;7.27;;;;;;;11.45;42.25;102555.84;10240144;28;20306;-71
2022/03/17 15:15:58;;;;;;;11.83;5.90;;;;;;;11.22;42.23;102562.25;10248372;28;20216;-71
2022/03/17 15:21:02;;;;;;;10.97;5.27;;;;;;;10.93;42.25;102568.50;10236102;28;20619;-70
2022/03/17 15:26:07;;;;;;;16.07;5.60;;;;;;;10.69;43.75;102572.19;10236582;28;20223;-71
2022/03/17 15:31:13;;;;;;;11.43;5.57;;;;;;;10.64;42.71;102576.41;10233578;29;20563;-71
2022/03/17 15:36:16;;;;;;;11.30;5.63;;;;;;;10.66;42.83;102583.41;10239768;28;20295;-71
2022/03/17 15:41:21;;;;;;;10.40;4.50;;;;;;;10.55;42.55;102587.44;9901567;28;10000661;-72
2022/03/17 15:46:24;;;;;;;11.70;5.07;;;;;;;10.34;42.83;102587.75;10241518;28;20742;-70
2022/03/17 15:51:28;;;;;;;15.50;5.10;;;;;;;10.31;42.89;102587.69;10239446;29;20263;-72
2022/03/17 15:56:33;;;;;;;13.03;4.90;;;;;;;10.04;42.99;102599.00;10240335;28;20216;-72
2022/03/17 16:01:36;;;;;;;11.83;4.80;;;;;;;9.85;42.75;102596.72;10242055;29;20226;-72
2022/03/17 16:06:40;;;;;;;12.47;5.77;;;;;;;9.53;43.30;102600.06;10224285;28;20228;-70
2022/03/17 16:17:06;;;;;;;11.80;5.03;;;;;;;9.17;45.80;102617.97;10242818;28;20224;-71
2022/03/17 16:22:10;;;;;;;10.93;4.77;;;;;;;9.02;46.00;102625.25;10242922;28;20260;-72
2022/03/17 16:27:15;;;;;;;10.03;4.40;;;;;;;8.89;44.49;102623.97;10253032;28;20220;-70
2022/03/17 16:32:20;;;;;;;8.63;4.17;;;;;;;8.72;45.17;102631.97;10240497;28;20307;-69
2022/03/17 16:37:24;;;;;;;8.87;4.27;;;;;;;8.63;44.43;102640.31;10284374;28;20222;-69
2022/03/17 16:42:29;;;;;;;10.03;4.73;;;;;;;8.42;44.65;102642.16;10299041;28;20245;-68
2022/03/17 16:47:32;;;;;;;15.97;4.67;;;;;;;8.32;45.04;102637.50;10265617;28;20234;-68
2022/03/17 16:52:36;;;;;;;18.20;7.30;;;;;;;8.18;44.40;102651.59;10257683;28;20232;-72
2022/03/17 16:57:41;;;;;;;16.53;6.73;;;;;;;8.07;45.31;102653.81;10257102;28;20335;-70
2022/03/17 17:02:45;;;;;;;9.57;3.90;;;;;;;7.77;46.50;102649.19;10273536;28;20224;-69
2022/03/17 17:07:51;;;;;;;10.63;4.07;;;;;;;7.73;45.73;102655.94;10286434;28;20286;-69
2022/03/17 17:12:56;;;;;;;12.63;4.97;;;;;;;7.74;46.34;102662.00;10292611;28;20238;-70
2022/03/17 17:18:01;;;;;;;9.93;4.40;;;;;;;7.56;46.30;102664.75;10291126;28;20286;-69
2022/03/17 17:33:48;;;;;;;12.40;4.83;;;;;;;7.31;46.06;102669.78;10250193;28;20286;-70
2022/03/17 17:38:51;;;;;;;12.00;5.33;;;;;;;7.24;46.29;102683.28;10252173;28;20234;-75
2022/03/17 17:43:56;;;;;;;11.50;5.10;;;;;;;7.14;46.26;102677.66;10252315;29;20224;-66
2022/03/17 17:49:00;;;;;;;13.93;6.10;;;;;;;7.06;47.25;102687.69;10252033;28;20232;-70
2022/03/17 17:54:03;;;;;;;17.77;6.80;;;;;;;6.89;47.44;102699.88;10252150;28;20208;-70
2022/03/17 17:59:10;;;;;;;16.40;8.37;;;;;;;6.80;46.20;102704.66;10251306;28;20669;-68
2022/03/17 18:04:13;;;;;;;16.30;8.17;;;;;;;6.60;47.89;102715.81;10251765;28;20200;-70
2022/03/17 18:09:16;;;;;;;18.43;7.73;;;;;;;6.38;48.35;102723.44;10229780;28;20233;-70
2022/03/17 18:14:21;;;;;;;20.03;7.17;;;;;;;6.30;49.93;102731.66;10211807;29;20203;-72
2022/03/17 18:19:25;;;;;;;17.87;7.60;;;;;;;6.18;49.21;102728.53;10211459;29;20335;-72
2022/03/17 18:24:29;;;;;;;30.13;14.17;;;;;;;6.14;48.70;102739.50;10211488;29;20533;-71
2022/03/17 18:29:33;;;;;;;17.57;8.37;;;;;;;6.07;49.72;102740.03;10245521;28;20231;-71
2022/03/17 18:34:37;;;;;;;18.83;9.10;;;;;;;5.95;50.19;102740.34;10249332;28;20254;-72
2022/03/17 18:39:40;;;;;;;17.60;6.97;;;;;;;5.83;48.82;102739.78;10248141;28;20218;-70
2022/03/17 18:44:45;;;;;;;16.13;7.30;;;;;;;5.77;49.11;102747.16;10218143;29;20220;-72
2022/03/17 18:49:49;;;;;;;18.13;7.80;;;;;;;5.73;47.65;102752.97;10223782;29;20233;-70
2022/03/17 18:54:53;;;;;;;17.57;7.53;;;;;;;5.70;48.15;102751.16;10249987;28;20782;-72
2022/03/17 18:59:58;;;;;;;18.90;9.13;;;;;;;5.63;47.04;102761.06;10247344;28;20647;-71
2022/03/17 19:05:02;;;;;;;25.63;12.37;;;;;;;5.58;49.00;102754.81;10248357;28;20230;-70
2022/03/17 19:10:06;;;;;;;19.93;9.90;;;;;;;5.52;48.11;102764.84;10245534;29;20703;-70
2022/03/17 19:15:12;;;;;;;19.23;8.97;;;;;;;5.35;48.18;102766.56;10247312;28;20224;-72
2022/03/17 19:20:35;;;;;;;20.33;9.53;;;;;;;5.23;48.23;102772.81;10230729;29;20649;-72
2022/03/17 19:25:40;;;;;;;24.63;10.57;;;;;;;5.15;47.01;102775.00;10207861;29;20229;-70
2022/03/17 19:30:44;;;;;;;21.17;9.47;;;;;;;5.10;47.12;102776.47;10208335;29;20229;-69
2022/03/17 19:35:49;;;;;;;20.30;9.47;;;;;;;5.18;47.79;102782.88;10220459;29;20778;-71
2022/03/17 19:41:13;;;;;;;23.67;10.30;;;;;;;5.08;47.72;102787.47;10249147;28;20347;-70
2022/03/17 19:46:20;;;;;;;18.93;10.03;;;;;;;4.95;47.74;102790.25;10249110;28;20246;-70
2022/03/17 19:51:24;;;;;;;23.63;10.13;;;;;;;4.85;48.14;102798.28;10248873;28;20228;-71
2022/03/17 19:56:28;;;;;;;23.97;10.53;;;;;;;4.65;49.06;102804.94;10252917;28;20259;-71
2022/03/17 20:01:33;;;;;;;22.03;10.77;;;;;;;4.59;50.97;102799.50;10249439;28;20238;-69
2022/03/17 20:06:57;;;;;;;26.63;11.17;;;;;;;4.57;49.71;102809.69;10249183;28;20232;-70
2022/03/17 20:17:24;;;;;;;26.13;12.37;;;;;;;4.27;49.96;102812.28;10248837;28;20703;-70
2022/03/17 20:22:27;;;;;;;31.67;12.73;;;;;;;4.27;48.63;102827.72;10251379;28;20351;-72
2022/03/17 20:27:31;;;;;;;25.10;11.03;;;;;;;4.20;49.22;102838.47;10255483;29;20224;-70
2022/03/17 20:32:36;;;;;;;33.23;14.97;;;;;;;4.14;48.50;102853.56;10255451;28;20244;-73
2022/03/17 20:37:39;;;;;;;24.57;11.53;;;;;;;4.07;49.23;102859.16;10256787;28;20623;-68
2022/03/17 20:42:45;;;;;;;25.00;11.93;;;;;;;3.91;49.52;102864.22;10254822;28;20680;-71
2022/03/17 20:47:50;;;;;;;30.23;12.83;;;;;;;3.87;49.47;102870.84;10254625;28;20641;-72
2022/03/17 20:52:54;;;;;;;28.43;12.23;;;;;;;3.82;50.17;102873.94;10254568;28;20232;-72
2022/03/17 20:58:00;;;;;;;28.50;13.30;;;;;;;3.72;51.48;102887.97;10254652;29;20220;-70
2022/03/17 21:03:05;;;;;;;32.17;13.47;;;;;;;3.73;50.22;102899.13;10254109;28;20541;-71
2022/03/17 21:08:11;;;;;;;33.73;12.70;;;;;;;3.65;50.17;102901.25;10255222;29;20244;-70
2022/03/17 21:13:15;;;;;;;29.30;12.87;;;;;;;3.61;51.52;102911.25;10260130;28;20227;-70
2022/03/17 21:18:19;;;;;;;27.60;12.63;;;;;;;3.53;51.93;102916.81;10293192;28;20577;-69
2022/03/17 21:23:23;;;;;;;30.97;13.63;;;;;;;3.54;52.38;102912.56;10292187;28;20249;-72
2022/03/17 21:28:26;;;;;;;27.13;12.10;;;;;;;3.35;52.17;102910.59;10293977;28;20227;-70
2022/03/17 21:33:32;;;;;;;34.10;13.40;;;;;;;3.32;52.96;102910.41;10292490;28;20235;-70
2022/03/17 21:38:36;;;;;;;27.33;13.37;;;;;;;3.26;54.11;102910.03;10279776;28;20220;-71
2022/03/17 21:43:39;;;;;;;30.37;12.73;;;;;;;3.15;54.51;102905.06;10254924;28;20294;-73
2022/03/17 21:48:44;;;;;;;33.30;13.63;;;;;;;3.12;54.62;102910.88;10252512;28;20232;-70
2022/03/17 21:53:48;;;;;;;28.80;13.30;;;;;;;3.13;53.78;102917.78;10252705;29;20224;-71
2022/03/17 21:58:51;;;;;;;28.63;12.83;;;;;;;3.10;53.33;102926.97;10252207;28;20220;-70
2022/03/17 22:03:56;;;;;;;32.93;13.67;;;;;;;3.08;53.07;102931.13;10252226;28;20228;-71
2022/03/17 22:09:04;;;;;;;33.27;14.83;;;;;;;2.97;53.13;102932.16;10252361;28;20246;-71
2022/03/17 22:14:08;;;;;;;32.40;14.83;;;;;;;2.89;53.10;102938.47;10254651;28;20516;-69
2022/03/17 22:19:15;;;;;;;32.27;14.70;;;;;;;2.80;52.89;102946.47;10251214;28;20270;-70
2022/03/17 22:24:19;;;;;;;32.87;14.53;;;;;;;2.80;54.41;102958.41;10251350;28;20232;-70
2022/03/17 22:29:22;;;;;;;33.60;15.23;;;;;;;2.69;53.59;102957.75;10252284;28;20227;-71
2022/03/17 22:34:27;;;;;;;34.40;14.93;;;;;;;2.52;53.67;102958.34;10250457;28;20680;-70
2022/03/17 22:41:30;;;;;;;33.97;14.23;;;;;;;2.54;55.89;102956.78;10238081;28;20746;-72
2022/03/17 22:44:55;;;;;;;34.03;14.27;;;;;;;2.46;54.20;102962.19;10252842;28;20340;-70
2022/03/17 22:50:01;;;;;;;31.27;14.23;;;;;;;2.42;55.62;102961.13;10255966;28;20306;-71
2022/03/17 22:55:06;;;;;;;37.67;16.10;;;;;;;2.58;54.76;102962.97;10230856;28;20248;-71
2022/03/17 23:00:27;;;;;;;32.10;15.17;;;;;;;2.38;56.17;102977.97;10248233;28;20274;-71
2022/03/17 23:05:35;;;;;;;35.00;14.40;;;;;;;2.32;55.28;102980.16;10251297;28;20307;-62
2022/03/17 23:10:40;;;;;;;37.23;15.97;;;;;;;2.10;56.93;102984.66;10288528;28;20290;-71
2022/03/17 23:15:44;;;;;;;32.77;15.57;;;;;;;2.25;54.64;102993.34;10297015;28;20247;-71
2022/03/17 23:21:09;;;;;;;36.50;17.83;;;;;;;2.14;55.08;102991.75;10295623;28;20257;-72
2022/03/17 23:26:14;;;;;;;35.47;15.63;;;;;;;2.03;56.62;102995.28;10293753;28;20306;-69
2022/03/17 23:31:19;;;;;;;33.90;14.47;;;;;;;2.07;57.41;103014.31;10294531;28;20235;-72
2022/03/17 23:36:24;;;;;;;27.90;14.07;;;;;;;2.20;57.58;103019.44;10296454;28;20215;-72
2022/03/17 23:41:29;;;;;;;33.53;14.50;;;;;;;2.17;58.22;103020.09;10299800;28;20234;-71
2022/03/17 23:46:39;;;;;;;31.83;13.67;;;;;;;2.19;57.66;103022.81;10298159;28;20219;-71
2022/03/17 23:57:07;;;;;;;25.83;13.57;;;;;;;1.96;58.88;103035.75;10300791;28;20562;-71
